Flight Track Log - Related Links

Times and Time Zones

All times are in EDT time to prevent confusion due to time zone crossing. See the RPA3275 flight status page for this flight to view local times or setup timezone preferences in your user account.

Time Position Orientation Groundspeed Altitude Reporting Facility
EDT Latitude Longitude Course Direction KTS MPH feet Rate Location/Type
Mon 06:56:10 AM 42.7675 -73.8033 220° Southwest 150 173 1,700  Level Boston Center
Mon 06:57:16 AM 42.8022 -73.8522 314° West 234 269 3,900 2,557 Climbing Boston Center
Mon 06:58:00 AM 42.7333 -74.1427 270° West  Level FlightAware Approximate
Mon 06:58:12 AM 42.7886 -73.9311 257° West 261 300 6,900  Level Boston Center
Mon 06:59:00 AM 42.7333 -74.2570 270° West  Level FlightAware Approximate
Mon 06:59:12 AM 42.7769 -74.0269 261° West 261 300 10,000  Level Boston Center
Mon 07:00:00 AM 42.6992 -74.3530 220° Southwest  Level FlightAware Approximate
Mon 07:00:12 AM 42.7647 -74.1456 262° West 275 316 12,700  Level Boston Center
Mon 07:01:00 AM 42.6346 -74.4258 220° Southwest  Level FlightAware Approximate
Mon 07:01:12 AM 42.7525 -74.2639 262° West 309 356 15,700  Level Boston Center
Mon 07:02:12 AM 42.6989 -74.3639 234° Southwest 341 392 17,800 1,150 Climbing Boston Center
Mon 07:03:12 AM 42.6222 -74.4519 220° Southwest 349 402 18,000 100 Climbing Boston Center
Mon 07:04:12 AM 42.5456 -74.5397 220° Southwest 366 421 18,000  Level Boston Center
Mon 07:05:12 AM 42.4689 -74.6242 219° Southwest 366 421 18,000  Level Boston Center
Mon 07:06:12 AM 42.4092 -74.6953 221° Southwest 366 421 18,000  Level Boston Center
Mon 07:08:18 AM 42.2369 -74.8911 220° Southwest 358 412 18,000  Level New York Center
Mon 07:09:17 AM 42.1653 -74.9733 220° Southwest 367 422 18,000  Level New York Center
Mon 07:10:17 AM 42.0711 -75.0511 212° Southwest 373 429 18,000  Level New York Center
Mon 07:11:20 AM 41.9917 -75.1128 210° Southwest 367 422 18,000  Level New York Center
Mon 07:12:18 AM 41.9058 -75.1853 212° Southwest 367 422 18,000  Level New York Center
Mon 07:13:18 AM 41.8092 -75.2622 211° Southwest 374 430 18,000 -50 Level New York Center
Mon 07:14:17 AM 41.7214 -75.3314 210° Southwest 374 430 17,900 -958 Descending New York Center
Mon 07:15:17 AM 41.6492 -75.4153 221° Southwest 364 419 16,100 -2,000 Descending New York Center
Mon 07:16:17 AM 41.5978 -75.5061 233° Southwest 345 397 13,900 -2,033 Descending New York Center
Mon 07:17:18 AM 41.5439 -75.6019 233° Southwest 339 390 12,000 -950 Descending New York Center
Mon 07:18:17 AM 41.4644 -75.6600 209° Southwest 323 372 12,000  Level New York Center
Mon 07:19:18 AM 41.3719 -75.6339 168° South 308 354 12,000  Level New York Center
Mon 07:20:19 AM 41.2667 -75.6097 170° South 317 365 12,000  Level New York Center
Mon 07:21:17 AM 41.1819 -75.5925 171° South 340 391 12,000  Level New York Center
Mon 07:22:18 AM 41.0889 -75.5722 171° South 352 405 12,000  Level New York Center
Mon 07:23:18 AM 40.9836 -75.5483 170° South 352 405 12,000  Level New York Center
Mon 07:24:17 AM 40.8886 -75.5278 171° South 352 405 12,000  Level New York Center
Mon 07:25:18 AM 40.7958 -75.5078 171° South 347 399 12,000  Level New York Center
Mon 07:26:18 AM 40.6989 -75.4844 170° South 352 405 12,000  Level New York Center
Mon 07:27:18 AM 40.6139 -75.4678 172° South 338 389 12,000 -350 Level New York Center
Mon 07:28:18 AM 40.5272 -75.4481 170° South 326 375 11,300 -1,150 Descending New York Center
Mon 07:29:18 AM 40.4531 -75.4242 166° South 316 364 9,700 -1,686 Descending New York Center
Mon 07:30:19 AM 40.3806 -75.3647 148° Southeast 306 352 7,900 -1,835 Descending New York Center
Mon 07:31:19 AM 40.3081 -75.2972 145° Southeast 301 346 6,000 -966 Descending New York Center
Mon 07:32:17 AM 40.2417 -75.2386 146° Southeast 296 341 6,000  Level New York Center
Mon 07:33:18 AM 40.1869 -75.1917 147° Southeast 280 322 6,000 -148 Level New York Center
Mon 07:34:19 AM 40.1267 -75.1333 143° Southeast 255 293 5,700 -950 Descending New York Center
Mon 07:35:18 AM 40.0783 -75.0869 144° Southeast 250 288 4,100 -1,350 Descending New York Center
Mon 07:36:19 AM 40.0147 -75.0614 163° South 226 260 3,000 -956 Descending New York Center
Mon 07:37:11 AM 39.9667 -75.0500 170° South 184 212 2,300 -482 Descending Philadelphia TRACON
Mon 07:38:11 AM 39.9167 -75.0667 194° South 189 217 2,100 -200 Descending Philadelphia TRACON

Login

Don't have an account? Register now (free) for customized features, flight alerts, and more!